Time;durP1;ratioP1;P1;durP2;ratioP2;P2;SDS_P1;SDS_P2;PMS_P1;PMS_P2;Temp;Humidity;BMP_temperature;BMP_pressure;BME280_temperature;BME280_humidity;BME280_pressure;Samples;Min_cycle;Max_cycle;Signal;HPM_P1;HPM_P2
2021/01/25 00:01:26;;;;;;;11.32;7.22;;;4.00;99.90;;;;;;5008698;28;20401;-54
2021/01/25 00:03:52;;;;;;;13.00;7.10;;;1.20;99.90;;;;;;5009381;28;20440;-55
2021/01/25 00:06:17;;;;;;;13.10;7.35;;;2.70;99.90;;;;;;5009845;28;20692;-55
2021/01/25 00:08:43;;;;;;;13.13;7.22;;;1.30;99.90;;;;;;5008568;28;20736;-54
2021/01/25 00:11:09;;;;;;;11.73;6.97;;;1.30;99.90;;;;;;5009746;28;20408;-55
2021/01/25 00:13:34;;;;;;;12.13;7.47;;;2.40;99.90;;;;;;5009608;28;20405;-55
2021/01/25 00:16:00;;;;;;;11.43;7.40;;;1.20;99.90;;;;;;5008663;28;20459;-54
2021/01/25 00:18:26;;;;;;;11.37;7.43;;;1.10;99.90;;;;;;5009241;28;20381;-54
2021/01/25 00:20:51;;;;;;;15.07;8.00;;;1.10;99.90;;;;;;5008410;28;20428;-54
2021/01/25 00:23:17;;;;;;;13.23;7.30;;;1.20;99.90;;;;;;5007874;28;20492;-54
2021/01/25 00:25:42;;;;;;;14.75;8.48;;;3.80;99.90;;;;;;5007955;28;20459;-54
2021/01/25 00:28:08;;;;;;;12.43;8.40;;;3.80;99.90;;;;;;5009922;28;20479;-55
2021/01/25 00:30:34;;;;;;;13.80;7.85;;;2.60;99.90;;;;;;5009495;28;20416;-54
2021/01/25 00:32:59;;;;;;;13.33;7.70;;;1.20;99.90;;;;;;5005109;28;20405;-54
2021/01/25 00:35:25;;;;;;;11.80;7.00;;;1.10;99.90;;;;;;5004329;28;20396;-55
2021/01/25 00:37:51;;;;;;;12.30;7.00;;;1.00;99.90;;;;;;5002543;28;20875;-54
2021/01/25 00:40:16;;;;;;;13.15;7.50;;;1.00;99.90;;;;;;4998913;28;20869;-54
2021/01/25 00:42:42;;;;;;;12.20;6.70;;;1.00;99.90;;;;;;4996344;28;20479;-54
2021/01/25 00:45:08;;;;;;;9.90;6.50;;;1.00;99.90;;;;;;5009845;28;20843;-55
2021/01/25 00:47:34;;;;;;;9.90;5.85;;;1.00;99.90;;;;;;5008772;28;20414;-54
2021/01/25 00:50:00;;;;;;;10.77;6.10;;;1.00;99.90;;;;;;5001325;28;20932;-55
2021/01/25 00:52:25;;;;;;;11.02;5.75;;;1.10;99.90;;;;;;5009104;28;20408;-55
2021/01/25 00:54:51;;;;;;;10.43;6.10;;;1.10;99.90;;;;;;5009243;28;20878;-55
2021/01/25 00:57:17;;;;;;;9.82;6.10;;;1.20;99.90;;;;;;5005464;28;20413;-55
2021/01/25 00:59:43;;;;;;;10.50;5.90;;;1.30;99.90;;;;;;5009266;28;20460;-54
2021/01/25 01:02:09;;;;;;;10.98;5.55;;;1.20;99.90;;;;;;5009676;28;20388;-55
2021/01/25 01:04:35;;;;;;;10.75;5.90;;;1.10;99.90;;;;;;5008348;28;20432;-54
2021/01/25 01:07:01;;;;;;;9.60;5.65;;;3.40;99.90;;;;;;5007806;28;20586;-54
2021/01/25 01:09:27;;;;;;;12.30;5.68;;;1.30;99.90;;;;;;5002074;28;20871;-55
2021/01/25 01:11:53;;;;;;;9.23;6.10;;;1.30;99.90;;;;;;5010676;28;20408;-55
2021/01/25 01:14:19;;;;;;;11.82;6.53;;;3.40;99.90;;;;;;5012579;28;20455;-55
2021/01/25 01:16:45;;;;;;;14.38;6.10;;;1.30;99.90;;;;;;5008770;28;20748;-55
2021/01/25 01:19:10;;;;;;;10.77;6.10;;;1.30;99.90;;;;;;5013074;28;20419;-54
2021/01/25 01:21:36;;;;;;;9.95;5.40;;;1.30;99.90;;;;;;5012166;28;20421;-54
2021/01/25 01:24:03;;;;;;;14.50;7.53;;;1.30;99.90;;;;;;5012916;28;20384;-55
2021/01/25 01:26:29;;;;;;;12.85;7.20;;;1.30;99.90;;;;;;5013246;28;20417;-54
2021/01/25 01:28:55;;;;;;;13.20;7.00;;;1.30;99.90;;;;;;5010841;28;20506;-55
2021/01/25 01:31:20;;;;;;;13.83;6.73;;;1.30;99.90;;;;;;5013253;28;20424;-55
2021/01/25 01:33:46;;;;;;;10.68;5.55;;;3.40;99.90;;;;;;5011522;28;20409;-52
2021/01/25 01:36:12;;;;;;;9.23;5.35;;;2.50;99.90;;;;;;5004421;28;20555;-54
2021/01/25 01:38:38;;;;;;;8.20;4.20;;;3.80;99.90;;;;;;5011337;28;20527;-54
2021/01/25 01:41:04;;;;;;;10.13;5.57;;;2.70;99.90;;;;;;5011907;28;20805;-54
2021/01/25 01:43:30;;;;;;;10.10;5.30;;;1.20;99.90;;;;;;5013031;28;20468;-55
2021/01/25 01:45:55;;;;;;;11.53;5.30;;;1.20;99.90;;;;;;5010337;28;20552;-54
2021/01/25 01:48:22;;;;;;;9.53;4.97;;;1.10;99.90;;;;;;5012868;28;20412;-55
2021/01/25 01:50:48;;;;;;;8.43;5.30;;;1.80;99.90;;;;;;5010297;28;20770;-54
2021/01/25 01:53:15;;;;;;;8.90;4.60;;;3.80;99.90;;;;;;5012557;28;20451;-55
2021/01/25 01:55:42;;;;;;;9.07;4.80;;;4.10;99.90;;;;;;5013112;28;20384;-55
2021/01/25 01:58:08;;;;;;;9.80;4.57;;;0.60;99.90;;;;;;5011014;28;20393;-55
2021/01/25 02:00:34;;;;;;;9.38;4.30;;;3.90;99.90;;;;;;5012522;28;20399;-55
2021/01/25 02:03:00;;;;;;;10.03;4.37;;;1.30;99.90;;;;;;5012007;28;20392;-54
2021/01/25 02:05:26;;;;;;;6.70;3.80;;;3.80;99.90;;;;;;5010851;28;20392;-55
2021/01/25 02:07:53;;;;;;;9.27;4.20;;;1.10;99.90;;;;;;5010883;28;20397;-55
2021/01/25 02:10:21;;;;;;;8.80;4.10;;;1.10;99.90;;;;;;5010936;28;20786;-55
2021/01/25 02:12:48;;;;;;;6.90;3.87;;;2.00;99.90;;;;;;5009475;28;20975;-54
2021/01/25 02:15:16;;;;;;;7.55;4.20;;;3.70;99.90;;;;;;5012066;28;21140;-54
2021/01/25 02:17:41;;;;;;;8.05;4.32;;;1.00;99.90;;;;;;5010671;28;20767;-54
2021/01/25 02:20:17;;;;;;;8.75;4.28;;;3.00;99.90;;;;;;5011170;28;20404;-53
2021/01/25 02:23:21;;;;;;;7.63;4.30;;;1.00;99.90;;;;;;5011569;28;20392;-53
2021/01/25 02:26:02;;;;;;;10.60;4.63;;;1.00;99.90;;;;;;5009210;28;21469;-53
2021/01/25 02:28:29;;;;;;;7.80;3.80;;;1.00;99.90;;;;;;4992924;28;20439;-54
2021/01/25 02:30:55;;;;;;;8.13;4.40;;;1.00;99.90;;;;;;5001409;28;20525;-54
2021/01/25 02:33:22;;;;;;;6.90;4.00;;;1.00;99.90;;;;;;5012012;28;20756;-54
2021/01/25 02:35:48;;;;;;;8.00;4.20;;;3.20;99.90;;;;;;5009688;28;20439;-54
2021/01/25 02:38:15;;;;;;;7.53;4.20;;;1.20;99.90;;;;;;5010284;28;20679;-57
2021/01/25 02:40:45;;;;;;;8.35;5.00;;;1.30;99.90;;;;;;5010355;28;20553;-54
2021/01/25 02:43:12;;;;;;;8.45;4.53;;;1.30;99.90;;;;;;5011497;28;20381;-54
2021/01/25 02:45:38;;;;;;;8.70;4.47;;;1.20;99.90;;;;;;5011061;28;20393;-53
2021/01/25 02:48:04;;;;;;;8.67;4.57;;;3.00;99.90;;;;;;5009799;28;20969;-53
2021/01/25 02:50:30;;;;;;;9.60;4.82;;;1.10;99.90;;;;;;5010537;28;20427;-53
2021/01/25 02:52:55;;;;;;;9.10;4.53;;;1.20;99.90;;;;;;5009065;28;20405;-53
2021/01/25 02:55:21;;;;;;;9.57;5.00;;;1.20;99.90;;;;;;5010798;28;20392;-54
2021/01/25 02:57:47;;;;;;;11.15;5.50;;;2.70;99.90;;;;;;5010079;28;20480;-53
2021/01/25 03:00:13;;;;;;;10.80;5.30;;;2.70;99.90;;;;;;5009554;28;20498;-54
2021/01/25 03:02:39;;;;;;;8.52;4.57;;;1.30;99.90;;;;;;5011166;28;20388;-53
2021/01/25 03:05:05;;;;;;;9.02;4.68;;;1.50;99.90;;;;;;5009436;28;21010;-53
2021/01/25 03:07:31;;;;;;;11.20;5.90;;;1.50;99.90;;;;;;5010995;28;20448;-54
2021/01/25 03:10:03;;;;;;;20.50;10.13;;;2.80;99.90;;;;;;5009135;28;20503;-54
2021/01/25 03:12:30;;;;;;;14.15;7.30;;;1.50;99.90;;;;;;5009564;28;20468;-54
2021/01/25 03:14:56;;;;;;;11.75;5.90;;;3.00;99.90;;;;;;5008626;28;20499;-53
2021/01/25 03:17:22;;;;;;;10.70;4.60;;;1.60;99.90;;;;;;5009625;28;20484;-54
2021/01/25 03:19:47;;;;;;;8.73;4.77;;;4.40;99.90;;;;;;5010317;28;20464;-53
2021/01/25 03:22:13;;;;;;;10.30;5.15;;;2.20;99.90;;;;;;5011014;28;20404;-54
2021/01/25 03:24:39;;;;;;;12.20;5.22;;;4.50;99.90;;;;;;5011184;28;20381;-54
2021/01/25 03:27:05;;;;;;;10.82;5.00;;;4.30;99.90;;;;;;5010340;28;20383;-54
2021/01/25 03:29:32;;;;;;;8.23;5.03;;;3.50;99.90;;;;;;5010895;28;20408;-54
2021/01/25 03:31:57;;;;;;;8.65;4.20;;;1.80;99.90;;;;;;5010068;28;20953;-54
2021/01/25 03:34:23;;;;;;;8.90;5.37;;;1.80;99.90;;;;;;5010296;28;20476;-54
2021/01/25 03:36:49;;;;;;;10.23;5.00;;;2.90;99.90;;;;;;5009722;28;20488;-53
2021/01/25 03:39:14;;;;;;;10.40;5.40;;;1.70;99.90;;;;;;5010956;28;20410;-54
2021/01/25 03:41:40;;;;;;;8.23;5.20;;;3.40;99.90;;;;;;5010740;28;20726;-54
2021/01/25 03:44:06;;;;;;;8.83;5.03;;;1.50;99.90;;;;;;5010021;28;20849;-53
2021/01/25 03:46:31;;;;;;;10.00;5.20;;;1.40;99.90;;;;;;5004150;28;21438;-54
2021/01/25 03:48:57;;;;;;;10.23;5.20;;;2.60;99.90;;;;;;4998711;28;20388;-53
2021/01/25 03:51:23;;;;;;;9.90;5.50;;;1.30;99.90;;;;;;5010656;28;20909;-54
2021/01/25 03:53:49;;;;;;;10.50;5.50;;;1.20;99.90;;;;;;5010026;28;20420;-53
2021/01/25 03:56:16;;;;;;;9.75;5.50;;;1.10;99.90;;;;;;5010700;28;20393;-54
2021/01/25 03:58:42;;;;;;;9.97;5.90;;;1.10;99.90;;;;;;5010640;28;20391;-54
2021/01/25 04:01:08;;;;;;;12.02;6.75;;;1.10;99.90;;;;;;5009881;28;20875;-53
2021/01/25 04:03:34;;;;;;;11.48;7.10;;;2.80;99.90;;;;;;5010705;28;20393;-54
2021/01/25 04:06:00;;;;;;;10.88;6.30;;;1.10;99.90;;;;;;5010102;28;20391;-54
2021/01/25 04:08:25;;;;;;;15.10;7.68;;;1.00;99.90;;;;;;5010026;28;20454;-53
2021/01/25 04:10:51;;;;;;;11.63;6.90;;;1.00;99.90;;;;;;5009377;28;20424;-53
2021/01/25 04:13:17;;;;;;;15.80;8.40;;;1.00;99.90;;;;;;5010465;28;20396;-53
2021/01/25 04:15:42;;;;;;;12.98;8.23;;;3.40;99.90;;;;;;5009937;28;20393;-54
2021/01/25 04:18:08;;;;;;;13.35;8.57;;;1.10;99.90;;;;;;5009467;28;20484;-54
2021/01/25 04:20:34;;;;;;;13.65;8.30;;;1.10;99.90;;;;;;5010120;28;20417;-53
2021/01/25 04:23:00;;;;;;;14.43;8.20;;;1.00;99.90;;;;;;5009599;28;20882;-53
2021/01/25 04:25:26;;;;;;;14.05;8.38;;;1.00;99.90;;;;;;5010082;28;20962;-53
2021/01/25 04:27:52;;;;;;;17.60;8.90;;;1.00;99.90;;;;;;5009581;28;20475;-53
2021/01/25 04:30:18;;;;;;;14.07;8.13;;;1.00;99.90;;;;;;5010235;28;20746;-53
2021/01/25 04:32:44;;;;;;;14.68;8.15;;;1.10;99.90;;;;;;5010440;28;20491;-54
2021/01/25 04:35:12;;;;;;;15.20;7.93;;;3.80;99.90;;;;;;5008884;28;20843;-54
2021/01/25 04:37:38;;;;;;;15.02;8.23;;;1.10;99.90;;;;;;5009936;28;20774;-53
2021/01/25 04:40:06;;;;;;;12.80;7.90;;;1.10;99.90;;;;;;5009535;28;20393;-54
2021/01/25 04:42:33;;;;;;;12.45;7.80;;;1.10;99.90;;;;;;5010260;28;20415;-53
2021/01/25 04:44:59;;;;;;;14.05;8.25;;;1.30;99.90;;;;;;5009325;28;20480;-53
2021/01/25 04:47:26;;;;;;;13.30;7.78;;;2.20;99.90;;;;;;5013489;28;20377;-54
2021/01/25 04:49:52;;;;;;;15.32;8.75;;;1.00;99.90;;;;;;5012626;28;20857;-53
2021/01/25 04:52:20;;;;;;;17.98;11.15;;;1.10;99.90;;;;;;5013973;28;20388;-53
2021/01/25 04:54:47;;;;;;;16.55;10.63;;;1.10;99.90;;;;;;5013689;28;20388;-53
2021/01/25 04:57:15;;;;;;;20.85;13.00;;;3.30;99.90;;;;;;5013551;28;20443;-54
2021/01/25 04:59:44;;;;;;;22.25;11.57;;;1.00;99.90;;;;;;5013737;28;20849;-54
2021/01/25 05:02:10;;;;;;;17.02;10.50;;;1.10;99.90;;;;;;5013031;28;20404;-53
2021/01/25 05:04:35;;;;;;;18.10;10.10;;;2.40;99.90;;;;;;5010160;28;20396;-53
2021/01/25 05:07:01;;;;;;;15.60;9.77;;;3.20;99.90;;;;;;5009349;28;20492;-54
2021/01/25 05:09:27;;;;;;;14.27;8.80;;;1.10;99.90;;;;;;4992848;28;20481;-54
2021/01/25 05:11:59;;;;;;;15.45;9.65;;;1.10;99.90;;;;;;4993620;28;20429;-53
2021/01/25 05:14:37;;;;;;;17.48;9.65;;;1.00;99.90;;;;;;4993942;28;20502;-54
2021/01/25 05:17:07;;;;;;;14.60;8.80;;;1.00;99.90;;;;;;5008840;28;20405;-53
2021/01/25 05:19:33;;;;;;;13.98;8.80;;;3.10;99.90;;;;;;5013399;28;20385;-54
2021/01/25 05:21:58;;;;;;;14.23;9.07;;;1.00;99.90;;;;;;5010624;28;20806;-53
2021/01/25 05:24:24;;;;;;;14.93;9.00;;;1.00;99.90;;;;;;5012571;28;20392;-53
2021/01/25 05:26:57;;;;;;;17.13;9.80;;;3.60;99.90;;;;;;5011522;28;20408;-53
2021/01/25 05:29:24;;;;;;;16.00;9.80;;;0.90;99.90;;;;;;4993563;28;20888;-53
2021/01/25 05:31:51;;;;;;;15.88;9.00;;;0.90;99.90;;;;;;5004727;28;20470;-53
2021/01/25 05:34:18;;;;;;;13.82;9.50;;;0.80;99.90;;;;;;5007942;28;20474;-53
2021/01/25 05:36:44;;;;;;;17.70;10.98;;;0.80;99.90;;;;;;5000872;28;20400;-53
2021/01/25 05:39:14;;;;;;;14.80;9.13;;;2.10;99.90;;;;;;5003195;28;20987;-53
2021/01/25 05:41:51;;;;;;;16.27;9.73;;;0.70;99.90;;;;;;5003402;28;20425;-53
2021/01/25 05:44:17;;;;;;;15.95;8.20;;;0.70;99.90;;;;;;5010748;28;20432;-53
2021/01/25 05:46:44;;;;;;;17.23;9.10;;;0.80;99.90;;;;;;5002181;28;20471;-53
2021/01/25 05:49:09;;;;;;;14.95;8.43;;;0.80;99.90;;;;;;5008287;28;20404;-53
2021/01/25 05:51:35;;;;;;;14.87;8.07;;;0.90;99.90;;;;;;5009472;28;20401;-54
2021/01/25 05:54:02;;;;;;;19.38;8.60;;;2.70;99.90;;;;;;5008654;28;20724;-53
2021/01/25 05:56:29;;;;;;;14.77;8.63;;;0.70;99.90;;;;;;5004620;28;20396;-53
2021/01/25 05:58:54;;;;;;;15.07;8.10;;;0.70;99.90;;;;;;5005754;28;20417;-53
2021/01/25 06:01:22;;;;;;;14.65;8.30;;;0.70;99.90;;;;;;5012099;28;20419;-54
2021/01/25 06:03:48;;;;;;;16.70;8.23;;;0.80;99.90;;;;;;5007495;28;20750;-53
2021/01/25 06:06:21;;;;;;;14.70;8.13;;;0.70;99.90;;;;;;5009697;28;20504;-53
2021/01/25 06:08:52;;;;;;;18.20;8.90;;;3.30;99.90;;;;;;5010592;28;20405;-53
2021/01/25 06:11:28;;;;;;;19.20;9.50;;;0.70;99.90;;;;;;5008262;28;20781;-53
2021/01/25 06:13:57;;;;;;;14.73;9.23;;;0.70;99.90;;;;;;5009838;28;20401;-53
2021/01/25 06:16:26;;;;;;;14.75;9.00;;;0.70;99.90;;;;;;4999951;28;20416;-53
2021/01/25 06:19:05;;;;;;;15.40;8.30;;;0.80;99.90;;;;;;5008352;28;20381;-53
2021/01/25 06:21:33;;;;;;;20.40;9.60;;;1.00;99.90;;;;;;5005960;28;20572;-53
2021/01/25 06:24:04;;;;;;;18.97;9.70;;;1.00;99.90;;;;;;5006374;28;20432;-53
2021/01/25 06:26:31;;;;;;;18.13;9.57;;;1.00;99.90;;;;;;5007202;28;20396;-53
2021/01/25 06:29:08;;;;;;;16.67;9.40;;;1.00;99.90;;;;;;5008917;28;20401;-53
2021/01/25 06:31:38;;;;;;;18.50;9.70;;;1.00;99.90;;;;;;5009104;28;20405;-53
2021/01/25 06:34:06;;;;;;;16.45;9.80;;;1.00;99.90;;;;;;5009580;28;20400;-55
2021/01/25 06:36:34;;;;;;;17.88;9.70;;;0.90;99.90;;;;;;5002449;28;20861;-53
2021/01/25 06:39:04;;;;;;;20.50;10.20;;;0.90;99.90;;;;;;5003006;28;20493;-53
2021/01/25 06:41:42;;;;;;;19.23;9.95;;;1.00;99.90;;;;;;5008214;28;20400;-53
2021/01/25 06:44:10;;;;;;;16.73;9.48;;;1.00;99.90;;;;;;5002682;28;20436;-53
2021/01/25 06:46:38;;;;;;;20.10;10.80;;;1.90;99.90;;;;;;4998712;28;20480;-53
2021/01/25 06:49:08;;;;;;;20.20;11.10;;;1.00;99.90;;;;;;5007899;28;20396;-53
2021/01/25 06:51:41;;;;;;;19.83;10.85;;;1.00;99.90;;;;;;5008854;28;20393;-53
2021/01/25 06:54:08;;;;;;;23.53;11.70;;;1.10;99.90;;;;;;5007439;28;20486;-53
2021/01/25 06:56:44;;;;;;;17.65;10.75;;;3.60;99.90;;;;;;4996691;28;20412;-54
2021/01/25 06:59:11;;;;;;;19.17;11.40;;;2.40;99.90;;;;;;5004069;28;21008;-53
2021/01/25 07:01:40;;;;;;;20.20;11.07;;;1.10;99.90;;;;;;4983360;28;20414;-54
2021/01/25 07:04:15;;;;;;;19.58;11.35;;;3.60;99.90;;;;;;5005218;28;20464;-53
2021/01/25 07:06:46;;;;;;;20.83;11.55;;;1.10;99.90;;;;;;5007012;28;20401;-53
2021/01/25 07:09:12;;;;;;;22.63;11.40;;;3.60;99.90;;;;;;5005803;28;20399;-53
2021/01/25 07:11:39;;;;;;;24.40;12.87;;;1.00;99.90;;;;;;5004070;28;20421;-53
2021/01/25 07:14:05;;;;;;;18.63;11.60;;;1.10;99.90;;;;;;5008777;28;20405;-53
2021/01/25 07:16:32;;;;;;;19.17;11.27;;;1.10;99.90;;;;;;4996776;28;20401;-53
2021/01/25 07:18:57;;;;;;;22.33;12.48;;;1.20;99.90;;;;;;5006621;28;20467;-53
2021/01/25 07:21:23;;;;;;;25.65;12.30;;;1.20;99.90;;;;;;5009476;28;20846;-53
2021/01/25 07:23:50;;;;;;;24.65;13.07;;;3.00;99.90;;;;;;5009586;28;20401;-53
2021/01/25 07:26:19;;;;;;;29.97;13.30;;;1.30;99.90;;;;;;5006452;28;20410;-57
2021/01/25 07:28:45;;;;;;;24.27;12.70;;;1.40;99.90;;;;;;5007990;28;20388;-53
2021/01/25 07:31:12;;;;;;;25.90;12.38;;;4.20;99.90;;;;;;5008968;28;20508;-54
2021/01/25 07:33:38;;;;;;;19.83;11.48;;;1.30;99.90;;;;;;5007984;28;20428;-53
2021/01/25 07:36:05;;;;;;;28.35;12.45;;;2.70;99.90;;;;;;5005858;28;20396;-53
2021/01/25 07:38:30;;;;;;;26.55;12.20;;;1.30;99.90;;;;;;5002123;28;20751;-53
2021/01/25 07:40:58;;;;;;;25.97;12.30;;;3.80;99.90;;;;;;5005689;28;20420;-53
2021/01/25 07:43:29;;;;;;;27.63;12.95;;;2.70;99.90;;;;;;4999854;28;20404;-53
2021/01/25 07:46:10;;;;;;;28.55;12.60;;;1.40;99.90;;;;;;4995548;28;20404;-53
2021/01/25 07:48:50;;;;;;;26.23;13.57;;;1.50;99.90;;;;;;4998799;28;20405;-53
2021/01/25 07:51:23;;;;;;;27.00;14.20;;;1.60;99.90;;;;;;5005032;28;20417;-53
2021/01/25 07:53:49;;;;;;;23.65;11.95;;;1.70;99.90;;;;;;4996312;28;20949;-53
2021/01/25 07:56:17;;;;;;;25.77;13.07;;;1.70;99.90;;;;;;5005257;28;20406;-53
2021/01/25 07:58:42;;;;;;;22.10;12.50;;;1.80;99.90;;;;;;5006303;28;20459;-53
2021/01/25 08:01:12;;;;;;;22.42;11.30;;;1.80;99.90;;;;;;5005678;28;20413;-53
2021/01/25 08:03:42;;;;;;;22.60;11.63;;;1.70;99.90;;;;;;5008912;28;20393;-53
2021/01/25 08:06:10;;;;;;;19.30;11.70;;;1.80;99.90;;;;;;5008341;28;20392;-53
2021/01/25 08:08:37;;;;;;;25.30;12.93;;;1.70;99.90;;;;;;5009078;28;20412;-53
2021/01/25 08:11:07;;;;;;;21.60;12.50;;;1.90;99.90;;;;;;5005376;28;20507;-53
2021/01/25 08:13:42;;;;;;;24.15;13.05;;;1.90;99.90;;;;;;5008025;28;20405;-53
2021/01/25 08:16:19;;;;;;;23.02;12.32;;;1.90;99.90;;;;;;5000077;28;20434;-54
2021/01/25 08:19:10;;;;;;;33.05;15.25;;;1.90;99.90;;;;;;5006326;28;20381;-54
2021/01/25 08:21:43;;;;;;;22.13;11.93;;;2.00;99.90;;;;;;5006256;28;20427;-54
2021/01/25 08:24:11;;;;;;;24.85;12.98;;;2.00;99.90;;;;;;5007592;28;20547;-53
2021/01/25 08:26:37;;;;;;;20.88;13.02;;;2.00;99.90;;;;;;5007482;28;20403;-55
2021/01/25 08:29:09;;;;;;;21.47;12.40;;;2.00;99.90;;;;;;5006059;28;20393;-54
2021/01/25 08:31:43;;;;;;;22.45;12.80;;;2.00;99.90;;;;;;5006986;28;20882;-54
2021/01/25 08:34:29;;;;;;;23.20;12.93;;;2.10;99.90;;;;;;5006173;28;20401;-55
2021/01/25 08:37:08;;;;;;;26.77;13.30;;;2.20;99.90;;;;;;5008415;28;20742;-54
2021/01/25 08:39:41;;;;;;;31.13;13.65;;;2.40;99.90;;;;;;5007216;28;20503;-54
2021/01/25 08:42:19;;;;;;;30.58;12.48;;;2.40;99.90;;;;;;4999429;28;21146;-54
2021/01/25 08:44:51;;;;;;;23.60;13.00;;;4.20;99.90;;;;;;5002591;28;20443;-53
2021/01/25 08:47:26;;;;;;;25.50;13.13;;;2.50;99.90;;;;;;5003432;28;20405;-53
2021/01/25 08:49:52;;;;;;;22.90;12.93;;;5.10;99.90;;;;;;5003706;28;20481;-54
2021/01/25 08:52:23;;;;;;;26.70;12.40;;;2.90;99.90;;;;;;5004871;28;20810;-54
2021/01/25 08:54:48;;;;;;;25.27;12.37;;;2.60;99.90;;;;;;5006476;28;20898;-54
2021/01/25 08:57:20;;;;;;;19.40;12.13;;;3.60;99.90;;;;;;5005658;28;20393;-54
2021/01/25 08:59:45;;;;;;;22.73;12.35;;;3.00;99.90;;;;;;5004720;28;20407;-54
2021/01/25 09:02:11;;;;;;;21.37;12.20;;;3.10;99.90;;;;;;5005266;28;20405;-52
2021/01/25 09:04:37;;;;;;;18.90;12.03;;;3.30;99.90;;;;;;5004004;28;20424;-52
2021/01/25 09:07:03;;;;;;;24.80;11.23;;;4.90;99.90;;;;;;5005288;28;20405;-52
2021/01/25 09:09:28;;;;;;;21.70;10.80;;;3.50;99.90;;;;;;5006279;28;20774;-52
2021/01/25 09:11:56;;;;;;;21.20;11.00;;;3.30;99.90;;;;;;5005480;28;20393;-52
2021/01/25 09:14:22;;;;;;;23.00;11.45;;;5.20;99.90;;;;;;5003014;28;20446;-52
2021/01/25 09:16:49;;;;;;;16.55;10.15;;;4.40;99.90;;;;;;4999413;28;20447;-52
2021/01/25 09:19:15;;;;;;;19.35;11.35;;;4.10;99.90;;;;;;5001305;28;20413;-52
2021/01/25 09:21:41;;;;;;;20.40;12.13;;;3.30;99.90;;;;;;4987622;28;20499;-52
2021/01/25 09:24:07;;;;;;;28.10;19.90;;;3.30;99.90;;;;;;4991502;28;20497;-53
2021/01/25 09:26:33;;;;;;;26.70;19.55;;;3.40;99.90;;;;;;4995920;28;20417;-52
2021/01/25 09:28:58;;;;;;;22.17;12.45;;;3.40;99.90;;;;;;4989976;28;20520;-52
2021/01/25 09:31:26;;;;;;;21.38;10.82;;;3.30;99.90;;;;;;4989470;28;20442;-52
2021/01/25 09:33:53;;;;;;;30.92;20.25;;;3.20;99.90;;;;;;4983691;28;21670;-52
2021/01/25 09:36:19;;;;;;;27.05;15.90;;;5.30;99.90;;;;;;4986039;28;20401;-52
2021/01/25 09:38:45;;;;;;;22.15;14.20;;;3.00;99.90;;;;;;4992021;28;20394;-52
2021/01/25 09:41:11;;;;;;;26.42;14.75;;;4.90;99.90;;;;;;4992280;28;20746;-52
2021/01/25 09:43:37;;;;;;;22.75;12.85;;;5.30;99.90;;;;;;4998859;28;20450;-52
2021/01/25 09:46:03;;;;;;;18.73;11.50;;;3.10;99.90;;;;;;4986842;28;20832;-52
2021/01/25 09:48:28;;;;;;;18.73;11.83;;;3.30;99.90;;;;;;4994995;28;20434;-52
2021/01/25 09:50:54;;;;;;;21.30;14.80;;;4.50;99.90;;;;;;4989358;28;20424;-51
2021/01/25 09:53:21;;;;;;;18.25;11.30;;;3.60;99.90;;;;;;4990586;28;20892;-52
2021/01/25 09:55:49;;;;;;;17.45;11.35;;;3.70;99.90;;;;;;4991067;28;20846;-55
2021/01/25 09:58:16;;;;;;;15.07;8.45;;;4.20;99.90;;;;;;4990764;28;20689;-54
2021/01/25 10:00:41;;;;;;;11.05;7.40;;;4.40;99.90;;;;;;4993571;28;20431;-54
2021/01/25 10:03:08;;;;;;;12.45;6.80;;;4.40;99.90;;;;;;4995062;28;20402;-54
2021/01/25 10:05:34;;;;;;;11.32;7.20;;;4.20;99.90;;;;;;4991210;28;20405;-54
2021/01/25 10:08:00;;;;;;;11.98;7.95;;;4.00;99.90;;;;;;4995591;28;20469;-53
2021/01/25 10:10:27;;;;;;;14.40;9.30;;;3.90;99.90;;;;;;4992499;28;20420;-54
2021/01/25 10:12:53;;;;;;;11.52;7.03;;;4.40;99.90;;;;;;4989812;28;20865;-54
2021/01/25 10:15:19;;;;;;;11.77;6.88;;;4.50;99.90;;;;;;4987031;28;20413;-54
2021/01/25 10:17:45;;;;;;;12.10;6.95;;;4.80;99.90;;;;;;4978670;28;20434;-54
2021/01/25 10:20:13;;;;;;;14.23;7.70;;;4.90;99.90;;;;;;4995971;28;20775;-54
2021/01/25 10:22:39;;;;;;;12.38;7.22;;;5.00;99.90;;;;;;5003107;28;20393;-54
2021/01/25 10:25:09;;;;;;;11.63;8.48;;;6.00;99.90;;;;;;5008751;28;21501;-54
2021/01/25 10:27:36;;;;;;;21.10;15.68;;;4.80;99.90;;;;;;5005004;28;20396;-54
2021/01/25 10:30:07;;;;;;;11.82;8.20;;;4.70;99.90;;;;;;5006981;28;20479;-54
2021/01/25 10:32:33;;;;;;;11.00;7.10;;;4.80;99.90;;;;;;5009527;28;20397;-53
2021/01/25 10:34:59;;;;;;;12.48;6.90;;;4.90;99.90;;;;;;5004985;28;20411;-53
2021/01/25 10:37:25;;;;;;;10.87;6.90;;;4.70;99.90;;;;;;5008231;28;20886;-54
2021/01/25 10:39:51;;;;;;;11.90;6.50;;;5.20;99.90;;;;;;5002732;28;20444;-53
2021/01/25 10:42:17;;;;;;;11.27;6.30;;;4.70;99.90;;;;;;5000693;28;20475;-54
2021/01/25 10:44:42;;;;;;;9.50;6.23;;;4.60;99.90;;;;;;5000395;28;20385;-53
2021/01/25 10:47:12;;;;;;;11.27;8.50;;;6.90;99.90;;;;;;4994343;28;20416;-54
2021/01/25 10:49:38;;;;;;;11.02;5.97;;;4.80;99.90;;;;;;5000313;28;20764;-54
2021/01/25 10:52:03;;;;;;;9.47;5.80;;;4.80;99.90;;;;;;5008029;28;20436;-53
2021/01/25 10:54:29;;;;;;;10.30;6.20;;;4.30;99.90;;;;;;5007251;28;20414;-54
2021/01/25 10:56:55;;;;;;;11.43;6.47;;;4.10;99.90;;;;;;5007203;28;20399;-53
2021/01/25 10:59:20;;;;;;;9.93;6.23;;;5.50;99.90;;;;;;5005831;28;20417;-51
2021/01/25 11:01:46;;;;;;;9.03;6.13;;;3.80;99.90;;;;;;5007280;28;20587;-52
2021/01/25 11:04:12;;;;;;;9.27;5.80;;;3.80;99.90;;;;;;5009614;28;20416;-52
2021/01/25 11:06:38;;;;;;;8.77;5.00;;;4.00;99.90;;;;;;5002921;28;20400;-51
2021/01/25 11:09:04;;;;;;;10.57;5.30;;;3.80;99.90;;;;;;5003545;28;20394;-51
2021/01/25 11:11:30;;;;;;;9.57;5.53;;;3.80;99.90;;;;;;5004648;28;20906;-52
2021/01/25 11:13:56;;;;;;;9.20;5.50;;;3.80;99.90;;;;;;5003951;28;20412;-51
2021/01/25 11:16:22;;;;;;;6.63;3.50;;;5.10;99.90;;;;;;4998440;28;20454;-51
2021/01/25 11:18:48;;;;;;;5.47;2.30;;;3.50;99.90;;;;;;5004413;28;20487;-52
2021/01/25 11:21:14;;;;;;;4.10;1.92;;;3.30;99.90;;;;;;5004761;28;20440;-51
2021/01/25 11:23:39;;;;;;;4.75;1.90;;;3.30;99.90;;;;;;5005242;28;20393;-53
2021/01/25 11:26:05;;;;;;;4.30;2.00;;;3.30;99.90;;;;;;5007114;28;20389;-53
2021/01/25 11:28:30;;;;;;;4.80;2.00;;;5.50;99.90;;;;;;5007417;28;20435;-54
2021/01/25 11:30:56;;;;;;;3.93;2.07;;;3.30;99.90;;;;;;5001753;28;20596;-53
2021/01/25 11:33:22;;;;;;;4.67;2.20;;;3.40;99.90;;;;;;5004664;28;20975;-54
2021/01/25 11:35:47;;;;;;;4.07;1.90;;;3.70;99.90;;;;;;5004993;28;20400;-54
2021/01/25 11:38:13;;;;;;;4.80;1.80;;;3.60;99.90;;;;;;5005681;28;20436;-54
2021/01/25 11:40:39;;;;;;;4.82;1.55;;;5.70;99.90;;;;;;5003379;28;20752;-54
2021/01/25 11:43:05;;;;;;;3.20;1.45;;;3.40;99.90;;;;;;5001068;28;20423;-54
2021/01/25 11:45:32;;;;;;;3.30;1.70;;;3.40;99.90;;;;;;4998184;28;20427;-54
2021/01/25 11:47:59;;;;;;;3.40;1.50;;;3.30;99.90;;;;;;5005385;28;20400;-54
2021/01/25 11:50:25;;;;;;;3.75;1.75;;;3.10;99.90;;;;;;5004674;28;20620;-54
2021/01/25 11:52:51;;;;;;;3.50;1.67;;;3.10;99.90;;;;;;5004944;28;20405;-54
2021/01/25 11:55:17;;;;;;;4.10;1.80;;;3.10;99.90;;;;;;5005800;28;20388;-54
2021/01/25 11:57:42;;;;;;;4.50;2.00;;;3.00;99.90;;;;;;5006687;28;20445;-54
2021/01/25 12:00:09;;;;;;;3.78;1.80;;;4.60;99.90;;;;;;5007298;28;20407;-54
2021/01/25 12:02:34;;;;;;;3.42;1.50;;;3.00;99.90;;;;;;5005462;28;20518;-54
2021/01/25 12:05:00;;;;;;;3.50;1.70;;;3.60;99.90;;;;;;5008330;28;20420;-54
2021/01/25 12:07:25;;;;;;;3.67;1.50;;;4.70;99.90;;;;;;5004795;28;20774;-54
2021/01/25 12:09:51;;;;;;;3.83;1.80;;;3.20;99.90;;;;;;5002685;28;20770;-54
2021/01/25 12:12:17;;;;;;;3.50;1.50;;;4.80;99.90;;;;;;5003753;28;20398;-54
2021/01/25 12:14:43;;;;;;;3.20;1.53;;;3.60;99.90;;;;;;5001032;28;20397;-54
2021/01/25 12:17:08;;;;;;;3.80;1.90;;;3.50;99.90;;;;;;4999133;28;20804;-54
2021/01/25 12:19:36;;;;;;;3.80;1.57;;;3.60;99.90;;;;;;4992792;28;21090;-54
2021/01/25 12:22:02;;;;;;;4.67;1.57;;;3.80;99.90;;;;;;5003516;28;20397;-54
2021/01/25 12:24:27;;;;;;;4.00;1.80;;;3.80;99.90;;;;;;5005151;28;20476;-54
2021/01/25 12:26:53;;;;;;;3.70;1.60;;;3.80;99.90;;;;;;5001291;28;20438;-54
2021/01/25 12:29:18;;;;;;;3.30;1.40;;;4.00;99.90;;;;;;5004417;28;20393;-54
2021/01/25 12:31:45;;;;;;;3.77;1.33;;;4.00;99.90;;;;;;5004871;28;20401;-55
2021/01/25 12:34:10;;;;;;;3.90;1.50;;;4.00;99.90;;;;;;5004354;28;20923;-53
2021/01/25 12:36:37;;;;;;;4.10;1.30;;;4.10;99.90;;;;;;5007271;28;20389;-54
2021/01/25 12:39:03;;;;;;;4.00;1.40;;;4.20;99.90;;;;;;5004378;28;20405;-52
2021/01/25 12:41:29;;;;;;;3.70;1.60;;;4.00;99.90;;;;;;5003527;28;20496;-54
2021/01/25 12:43:55;;;;;;;3.80;1.30;;;4.10;99.90;;;;;;5003224;28;20742;-54
2021/01/25 12:46:21;;;;;;;3.10;1.00;;;4.40;99.90;;;;;;4999531;28;20559;-54
2021/01/25 12:48:47;;;;;;;4.20;1.25;;;3.60;99.90;;;;;;5005388;28;20400;-53